PWSweather.com
Personal Weather Stations
Station Observations
WAREHAM1
West Wareham, MA 02576

West Wareham, MA 02576

Lat: 41.7961059, Lon: -70.775612

Elevation: 88

Station Type: Davis Vantage Vue

http://www.gateway2capecod.com

High Low Average
Temperature 74.8°F23.8°C 62.4°F16.9°C 67.7°F19.8°C
Dew Point 70.0°F21.1°C 60.3°F15.7°C 65.7°F18.7°C
Winds 0.9 mph 1.4 kmh Calm Calm Calm SCalm S
Wind Gusts 5.0 mph8.0 kmh -- 1.0 mph1.6 kmh
Humidity 98% 83% 93%
Pressure 29.94 in1013.9 mb 29.89 in1012.2 mb -
Precipitation 0.60 in15.2 mm - -
Hour Temp Dew Point Humidity Winds Wind Gusts Pressure Precip Precip Rate Daily Precip Total
12:01 AM 64.9°F18.3°C 61.0°F16.1°C 87% Calm Calm -- 29.89 in1012.2 mb 0.00 in0.0 mm 0.00 in0.0 mm 0.00 in0.0 mm
12:11 AM 64.8°F18.2°C 60.8°F16.0°C 87% Calm Calm 1.0 mph1.6 kmh 29.89 in1012.2 mb 0.00 in0.0 mm 0.00 in0.0 mm 0.00 in0.0 mm
12:21 AM 64.8°F18.2°C 61.2°F16.2°C 88% Calm Calm -- 29.89 in1012.2 mb 0.00 in0.0 mm 0.00 in0.0 mm 0.00 in0.0 mm
12:31 AM 64.6°F18.1°C 61.0°F16.1°C 88% Calm Calm 1.0 mph1.6 kmh 29.89 in1012.2 mb 0.00 in0.0 mm 0.00 in0.0 mm 0.00 in0.0 mm
12:41 AM 64.2°F17.9°C 60.6°F15.9°C 88% Calm Calm -- 29.89 in1012.2 mb 0.00 in0.0 mm 0.00 in0.0 mm 0.00 in0.0 mm
12:51 AM 64.0°F17.8°C 60.8°F16.0°C 89% Calm Calm 1.0 mph1.6 kmh 29.89 in1012.2 mb 0.00 in0.0 mm 0.00 in0.0 mm 0.00 in0.0 mm
01:01 AM 63.9°F17.7°C 60.8°F16.0°C 90% Calm Calm -- 29.89 in1012.2 mb 0.00 in0.0 mm 0.00 in0.0 mm 0.00 in0.0 mm
01:11 AM 63.7°F17.6°C 60.6°F15.9°C 90% Calm Calm -- 29.89 in1012.2 mb 0.00 in0.0 mm 0.00 in0.0 mm 0.00 in0.0 mm
01:21 AM 63.3°F17.4°C 60.3°F15.7°C 90% Calm Calm -- 29.89 in1012.2 mb 0.00 in0.0 mm 0.00 in0.0 mm 0.00 in0.0 mm
01:31 AM 63.1°F17.3°C 60.4°F15.8°C 91% Calm Calm -- 29.89 in1012.2 mb 0.00 in0.0 mm 0.00 in0.0 mm 0.00 in0.0 mm
01:41 AM 63.1°F17.3°C 60.8°F16.0°C 92% Calm Calm -- 29.89 in1012.2 mb 0.00 in0.0 mm 0.00 in0.0 mm 0.00 in0.0 mm
01:51 AM 63.1°F17.3°C 60.8°F16.0°C 92% Calm Calm 0.9 mph1.4 kmh 29.89 in1012.2 mb 0.00 in0.0 mm 0.00 in0.0 mm 0.00 in0.0 mm
02:01 AM 63.1°F17.3°C 60.8°F16.0°C 92% Calm Calm -- 29.89 in1012.2 mb 0.00 in0.0 mm 0.00 in0.0 mm 0.00 in0.0 mm
02:11 AM 63.1°F17.3°C 60.8°F16.0°C 92% Calm Calm 1.0 mph1.6 kmh 29.89 in1012.2 mb 0.00 in0.0 mm 0.00 in0.0 mm 0.00 in0.0 mm
02:21 AM 63.0°F17.2°C 60.6°F15.9°C 92% Calm Calm 0.9 mph1.4 kmh 29.89 in1012.2 mb 0.00 in0.0 mm 0.00 in0.0 mm 0.00 in0.0 mm
02:31 AM 63.0°F17.2°C 61.0°F16.1°C 93% Calm Calm -- 29.90 in1012.5 mb 0.00 in0.0 mm 0.00 in0.0 mm 0.00 in0.0 mm
02:41 AM 63.0°F17.2°C 61.0°F16.1°C 93% Calm Calm 1.0 mph1.6 kmh 29.90 in1012.5 mb 0.00 in0.0 mm 0.00 in0.0 mm 0.00 in0.0 mm
02:51 AM 63.0°F17.2°C 61.0°F16.1°C 93% Calm Calm -- 29.90 in1012.5 mb 0.00 in0.0 mm 0.00 in0.0 mm 0.00 in0.0 mm
03:01 AM 63.0°F17.2°C 61.0°F16.1°C 93% Calm Calm -- 29.91 in1012.9 mb 0.00 in0.0 mm 0.00 in0.0 mm 0.00 in0.0 mm
03:11 AM 63.0°F17.2°C 61.0°F16.1°C 93% Calm Calm -- 29.90 in1012.5 mb 0.00 in0.0 mm 0.00 in0.0 mm 0.00 in0.0 mm
03:21 AM 62.8°F17.1°C 60.8°F16.0°C 93% Calm Calm -- 29.90 in1012.5 mb 0.00 in0.0 mm 0.00 in0.0 mm 0.00 in0.0 mm
03:31 AM 62.8°F17.1°C 60.8°F16.0°C 93% Calm Calm -- 29.90 in1012.5 mb 0.00 in0.0 mm 0.00 in0.0 mm 0.00 in0.0 mm
03:41 AM 62.8°F17.1°C 60.8°F16.0°C 93% Calm Calm -- 29.90 in1012.5 mb 0.00 in0.0 mm 0.00 in0.0 mm 0.00 in0.0 mm
03:51 AM 62.6°F17.0°C 60.8°F16.0°C 94% Calm Calm -- 29.90 in1012.5 mb 0.00 in0.0 mm 0.00 in0.0 mm 0.00 in0.0 mm
04:01 AM 62.4°F16.9°C 60.6°F15.9°C 94% Calm Calm -- 29.90 in1012.5 mb 0.00 in0.0 mm 0.00 in0.0 mm 0.00 in0.0 mm
04:11 AM 62.8°F17.1°C 61.0°F16.1°C 94% Calm Calm -- 29.91 in1012.9 mb 0.00 in0.0 mm 0.00 in0.0 mm 0.00 in0.0 mm
04:21 AM 62.8°F17.1°C 61.0°F16.1°C 94% Calm Calm -- 29.91 in1012.9 mb 0.00 in0.0 mm 0.00 in0.0 mm 0.00 in0.0 mm
04:31 AM 62.8°F17.1°C 61.0°F16.1°C 94% Calm Calm -- 29.91 in1012.9 mb 0.00 in0.0 mm 0.00 in0.0 mm 0.00 in0.0 mm
04:41 AM 62.8°F17.1°C 61.3°F16.3°C 95% Calm Calm -- 29.91 in1012.9 mb 0.00 in0.0 mm 0.00 in0.0 mm 0.00 in0.0 mm
04:51 AM 62.8°F17.1°C 61.3°F16.3°C 95% Calm Calm -- 29.91 in1012.9 mb 0.00 in0.0 mm 0.00 in0.0 mm 0.00 in0.0 mm
05:01 AM 62.8°F17.1°C 61.3°F16.3°C 95% Calm Calm -- 29.91 in1012.9 mb 0.00 in0.0 mm 0.00 in0.0 mm 0.00 in0.0 mm
05:11 AM 63.0°F17.2°C 61.5°F16.4°C 95% Calm Calm -- 29.92 in1013.2 mb 0.00 in0.0 mm 0.00 in0.0 mm 0.00 in0.0 mm
05:21 AM 63.0°F17.2°C 61.5°F16.4°C 95% Calm Calm 0.9 mph1.4 kmh 29.92 in1013.2 mb 0.00 in0.0 mm 0.00 in0.0 mm 0.00 in0.0 mm
05:31 AM 63.1°F17.3°C 62.1°F16.7°C 96% Calm Calm -- 29.92 in1013.2 mb 0.00 in0.0 mm 0.00 in0.0 mm 0.00 in0.0 mm
05:41 AM 63.3°F17.4°C 62.2°F16.8°C 96% Calm Calm -- 29.92 in1013.2 mb 0.00 in0.0 mm 0.00 in0.0 mm 0.00 in0.0 mm
05:51 AM 63.7°F17.6°C 62.6°F17.0°C 96% Calm Calm -- 29.92 in1013.2 mb 0.00 in0.0 mm 0.00 in0.0 mm 0.00 in0.0 mm
06:01 AM 63.9°F17.7°C 62.8°F17.1°C 96% Calm Calm -- 29.92 in1013.2 mb 0.00 in0.0 mm 0.00 in0.0 mm 0.00 in0.0 mm
06:11 AM 64.2°F17.9°C 63.1°F17.3°C 96% Calm Calm -- 29.93 in1013.5 mb 0.00 in0.0 mm 0.00 in0.0 mm 0.00 in0.0 mm
06:21 AM 64.8°F18.2°C 63.7°F17.6°C 96% Calm Calm 0.9 mph1.4 kmh 29.92 in1013.2 mb 0.00 in0.0 mm 0.00 in0.0 mm 0.00 in0.0 mm
06:31 AM 65.1°F18.4°C 64.0°F17.8°C 96% Calm Calm 0.9 mph1.4 kmh 29.92 in1013.2 mb 0.00 in0.0 mm 0.00 in0.0 mm 0.00 in0.0 mm
06:41 AM 65.7°F18.7°C 64.4°F18.0°C 96% Calm Calm 1.0 mph1.6 kmh 29.93 in1013.5 mb 0.00 in0.0 mm 0.00 in0.0 mm 0.00 in0.0 mm
06:51 AM 66.4°F19.1°C 65.1°F18.4°C 96% Calm Calm 0.9 mph1.4 kmh 29.93 in1013.5 mb 0.00 in0.0 mm 0.00 in0.0 mm 0.00 in0.0 mm
07:01 AM 66.7°F19.3°C 65.3°F18.5°C 95% Calm Calm 0.9 mph1.4 kmh 29.93 in1013.5 mb 0.00 in0.0 mm 0.00 in0.0 mm 0.00 in0.0 mm
07:11 AM 67.3°F19.6°C 65.8°F18.8°C 95% Calm Calm 1.0 mph1.6 kmh 29.93 in1013.5 mb 0.00 in0.0 mm 0.00 in0.0 mm 0.00 in0.0 mm
07:21 AM 67.8°F19.9°C 66.4°F19.1°C 95% Calm Calm 1.0 mph1.6 kmh 29.93 in1013.5 mb 0.00 in0.0 mm 0.00 in0.0 mm 0.00 in0.0 mm
07:31 AM 68.4°F20.2°C 66.6°F19.2°C 94% Calm Calm 1.0 mph1.6 kmh 29.93 in1013.5 mb 0.00 in0.0 mm 0.00 in0.0 mm 0.00 in0.0 mm
07:41 AM 68.7°F20.4°C 66.6°F19.2°C 93% Calm Calm 1.0 mph1.6 kmh 29.92 in1013.2 mb 0.00 in0.0 mm 0.00 in0.0 mm 0.00 in0.0 mm
07:51 AM 68.9°F20.5°C 66.7°F19.3°C 93% Calm Calm 1.0 mph1.6 kmh 29.93 in1013.5 mb 0.00 in0.0 mm 0.00 in0.0 mm 0.00 in0.0 mm
08:01 AM 69.4°F20.8°C 67.1°F19.5°C 92% Calm Calm 0.9 mph1.4 kmh 29.93 in1013.5 mb 0.00 in0.0 mm 0.00 in0.0 mm 0.00 in0.0 mm
08:11 AM 70.0°F21.1°C 67.3°F19.6°C 91% Calm Calm 2.0 mph3.2 kmh 29.93 in1013.5 mb 0.00 in0.0 mm 0.00 in0.0 mm 0.00 in0.0 mm
08:21 AM 70.5°F21.4°C 67.5°F19.7°C 90% Calm Calm 2.0 mph3.2 kmh 29.93 in1013.5 mb 0.00 in0.0 mm 0.00 in0.0 mm 0.00 in0.0 mm
08:31 AM 71.1°F21.7°C 67.6°F19.8°C 89% Calm Calm 2.0 mph3.2 kmh 29.93 in1013.5 mb 0.00 in0.0 mm 0.00 in0.0 mm 0.00 in0.0 mm
08:41 AM 71.2°F21.8°C 67.5°F19.7°C 88% Calm Calm 2.0 mph3.2 kmh 29.93 in1013.5 mb 0.00 in0.0 mm 0.00 in0.0 mm 0.00 in0.0 mm
08:51 AM 71.8°F22.1°C 68.0°F20.0°C 88% Calm Calm 2.0 mph3.2 kmh 29.93 in1013.5 mb 0.00 in0.0 mm 0.00 in0.0 mm 0.00 in0.0 mm
09:01 AM 72.3°F22.4°C 68.2°F20.1°C 87% Calm Calm 1.0 mph1.6 kmh 29.93 in1013.5 mb 0.00 in0.0 mm 0.00 in0.0 mm 0.00 in0.0 mm
09:11 AM 72.7°F22.6°C 68.5°F20.3°C 87% Calm Calm 1.0 mph1.6 kmh 29.92 in1013.2 mb 0.00 in0.0 mm 0.00 in0.0 mm 0.00 in0.0 mm
09:21 AM 73.0°F22.8°C 68.5°F20.3°C 86% 0.9 mph SW1.4 kmh SW 2.0 mph3.2 kmh 29.92 in1013.2 mb 0.00 in0.0 mm 0.00 in0.0 mm 0.00 in0.0 mm
09:31 AM 73.8°F23.2°C 69.3°F20.7°C 86% Calm Calm 2.0 mph3.2 kmh 29.93 in1013.5 mb 0.00 in0.0 mm 0.00 in0.0 mm 0.00 in0.0 mm
09:41 AM 74.1°F23.4°C 69.3°F20.7°C 85% 0.9 mph SSW1.4 kmh SSW 2.0 mph3.2 kmh 29.93 in1013.5 mb 0.00 in0.0 mm 0.00 in0.0 mm 0.00 in0.0 mm
09:51 AM 73.8°F23.2°C 68.9°F20.5°C 85% 0.9 mph SW1.4 kmh SW 2.9 mph4.7 kmh 29.93 in1013.5 mb 0.00 in0.0 mm 0.00 in0.0 mm 0.00 in0.0 mm
10:01 AM 73.8°F23.2°C 69.3°F20.7°C 86% 0.9 mph S1.4 kmh S 2.0 mph3.2 kmh 29.93 in1013.5 mb 0.00 in0.0 mm 0.00 in0.0 mm 0.00 in0.0 mm
10:11 AM 73.9°F23.3°C 69.4°F20.8°C 86% Calm Calm 3.0 mph4.8 kmh 29.93 in1013.5 mb 0.00 in0.0 mm 0.00 in0.0 mm 0.00 in0.0 mm
10:21 AM 74.1°F23.4°C 69.3°F20.7°C 85% Calm Calm 2.0 mph3.2 kmh 29.93 in1013.5 mb 0.00 in0.0 mm 0.00 in0.0 mm 0.00 in0.0 mm
10:31 AM 74.1°F23.4°C 69.3°F20.7°C 85% Calm Calm 2.0 mph3.2 kmh 29.93 in1013.5 mb 0.00 in0.0 mm 0.00 in0.0 mm 0.00 in0.0 mm
10:41 AM 73.9°F23.3°C 69.1°F20.6°C 85% 0.9 mph SSW1.4 kmh SSW 2.0 mph3.2 kmh 29.93 in1013.5 mb 0.00 in0.0 mm 0.00 in0.0 mm 0.00 in0.0 mm
10:51 AM 74.3°F23.5°C 69.4°F20.8°C 85% 0.9 mph SSE1.4 kmh SSE 2.0 mph3.2 kmh 29.93 in1013.5 mb 0.00 in0.0 mm 0.00 in0.0 mm 0.00 in0.0 mm
11:01 AM 74.5°F23.6°C 69.6°F20.9°C 85% 0.9 mph SW1.4 kmh SW 2.9 mph4.7 kmh 29.93 in1013.5 mb 0.00 in0.0 mm 0.00 in0.0 mm 0.00 in0.0 mm
11:11 AM 74.5°F23.6°C 69.6°F20.9°C 85% 0.9 mph SSW1.4 kmh SSW 3.0 mph4.8 kmh 29.93 in1013.5 mb 0.00 in0.0 mm 0.00 in0.0 mm 0.00 in0.0 mm
11:21 AM 74.5°F23.6°C 69.6°F20.9°C 85% 0.9 mph SSW1.4 kmh SSW 2.9 mph4.7 kmh 29.93 in1013.5 mb 0.00 in0.0 mm 0.00 in0.0 mm 0.00 in0.0 mm
11:31 AM 74.8°F23.8°C 70.0°F21.1°C 85% 0.9 mph S1.4 kmh S 2.0 mph3.2 kmh 29.93 in1013.5 mb 0.00 in0.0 mm 0.00 in0.0 mm 0.00 in0.0 mm
11:41 AM 74.8°F23.8°C 69.3°F20.7°C 83% 0.9 mph SW1.4 kmh SW 2.9 mph4.7 kmh 29.93 in1013.5 mb 0.00 in0.0 mm 0.00 in0.0 mm 0.00 in0.0 mm
11:51 AM 73.8°F23.2°C 68.9°F20.5°C 85% 0.9 mph S1.4 kmh S 2.0 mph3.2 kmh 29.93 in1013.5 mb 0.00 in0.0 mm 0.00 in0.0 mm 0.00 in0.0 mm
12:01 PM 73.2°F22.9°C 68.7°F20.4°C 86% 0.9 mph S1.4 kmh S 2.9 mph4.7 kmh 29.93 in1013.5 mb 0.00 in0.0 mm 0.00 in0.0 mm 0.00 in0.0 mm
12:11 PM 73.0°F22.8°C 68.9°F20.5°C 87% 0.9 mph SSE1.4 kmh SSE 2.0 mph3.2 kmh 29.93 in1013.5 mb 0.00 in0.0 mm 0.00 in0.0 mm 0.00 in0.0 mm
12:21 PM 73.0°F22.8°C 68.9°F20.5°C 87% 0.9 mph S1.4 kmh S 3.0 mph4.8 kmh 29.94 in1013.9 mb 0.00 in0.0 mm 0.00 in0.0 mm 0.00 in0.0 mm
12:31 PM 72.7°F22.6°C 68.5°F20.3°C 87% 0.9 mph SSW1.4 kmh SSW 2.9 mph4.7 kmh 29.93 in1013.5 mb 0.00 in0.0 mm 0.00 in0.0 mm 0.00 in0.0 mm
12:41 PM 72.3°F22.4°C 68.5°F20.3°C 88% Calm Calm 0.9 mph1.4 kmh 29.93 in1013.5 mb 0.00 in0.0 mm 0.00 in0.0 mm 0.00 in0.0 mm
12:51 PM 72.0°F22.2°C 68.5°F20.3°C 89% Calm Calm 2.0 mph3.2 kmh 29.93 in1013.5 mb 0.00 in0.0 mm 0.00 in0.0 mm 0.00 in0.0 mm
01:01 PM 72.0°F22.2°C 68.9°F20.5°C 90% Calm Calm 0.9 mph1.4 kmh 29.93 in1013.5 mb 0.00 in0.0 mm 0.00 in0.0 mm 0.00 in0.0 mm
01:11 PM 71.4°F21.9°C 68.4°F20.2°C 90% Calm Calm 2.9 mph4.7 kmh 29.93 in1013.5 mb 0.01 in0.3 mm 0.06 in1.5 mm 0.01 in0.3 mm
01:21 PM 70.9°F21.6°C 68.4°F20.2°C 92% Calm Calm 0.9 mph1.4 kmh 29.93 in1013.5 mb 0.02 in0.5 mm 0.06 in1.5 mm 0.02 in0.5 mm
01:31 PM 70.2°F21.2°C 67.6°F19.8°C 92% Calm Calm 0.9 mph1.4 kmh 29.93 in1013.5 mb 0.03 in0.8 mm 0.06 in1.5 mm 0.03 in0.8 mm
01:41 PM 69.6°F20.9°C 67.5°F19.7°C 93% Calm Calm 0.9 mph1.4 kmh 29.93 in1013.5 mb 0.04 in1.0 mm 0.06 in1.5 mm 0.04 in1.0 mm
01:51 PM 69.3°F20.7°C 67.1°F19.5°C 93% Calm Calm 0.9 mph1.4 kmh 29.93 in1013.5 mb 0.05 in1.3 mm 0.06 in1.5 mm 0.05 in1.3 mm
02:01 PM 68.9°F20.5°C 67.1°F19.5°C 94% Calm Calm 0.9 mph1.4 kmh 29.93 in1013.5 mb 0.06 in1.5 mm 0.01 in0.3 mm 0.06 in1.5 mm
02:11 PM 68.7°F20.4°C 66.9°F19.4°C 94% Calm Calm 0.9 mph1.4 kmh 29.93 in1013.5 mb 0.06 in1.5 mm 0.00 in0.0 mm 0.07 in1.8 mm
02:21 PM 68.5°F20.3°C 66.7°F19.3°C 94% Calm Calm 0.9 mph1.4 kmh 29.93 in1013.5 mb 0.06 in1.5 mm 0.00 in0.0 mm 0.08 in2.0 mm
02:31 PM 68.4°F20.2°C 66.9°F19.4°C 95% Calm Calm 0.9 mph1.4 kmh 29.93 in1013.5 mb 0.06 in1.5 mm 0.00 in0.0 mm 0.09 in2.3 mm
02:41 PM 67.8°F19.9°C 66.4°F19.1°C 95% Calm Calm 0.9 mph1.4 kmh 29.93 in1013.5 mb 0.06 in1.5 mm 0.00 in0.0 mm 0.10 in2.5 mm
02:51 PM 67.6°F19.8°C 66.2°F19.0°C 95% Calm Calm 1.0 mph1.6 kmh 29.93 in1013.5 mb 0.07 in1.8 mm 0.06 in1.5 mm 0.12 in3.0 mm
03:01 PM 67.6°F19.8°C 66.2°F19.0°C 95% Calm Calm 0.9 mph1.4 kmh 29.93 in1013.5 mb 0.06 in1.5 mm 0.00 in0.0 mm 0.12 in3.0 mm
03:11 PM 67.5°F19.7°C 66.0°F18.9°C 95% Calm Calm 0.9 mph1.4 kmh 29.93 in1013.5 mb 0.05 in1.3 mm 0.00 in0.0 mm 0.12 in3.0 mm
03:21 PM 67.1°F19.5°C 65.7°F18.7°C 95% Calm Calm 0.9 mph1.4 kmh 29.93 in1013.5 mb 0.05 in1.3 mm 0.00 in0.0 mm 0.13 in3.3 mm
03:31 PM 66.9°F19.4°C 65.5°F18.6°C 95% Calm Calm 0.9 mph1.4 kmh 29.93 in1013.5 mb 0.04 in1.0 mm 0.00 in0.0 mm 0.13 in3.3 mm
03:41 PM 66.9°F19.4°C 65.7°F18.7°C 96% Calm Calm 0.9 mph1.4 kmh 29.92 in1013.2 mb 0.03 in0.8 mm 0.00 in0.0 mm 0.13 in3.3 mm
03:51 PM 67.1°F19.5°C 65.8°F18.8°C 96% Calm Calm 0.9 mph1.4 kmh 29.92 in1013.2 mb 0.01 in0.3 mm 0.00 in0.0 mm 0.13 in3.3 mm
04:01 PM 66.9°F19.4°C 65.7°F18.7°C 96% Calm Calm 0.9 mph1.4 kmh 29.92 in1013.2 mb 0.02 in0.5 mm 0.01 in0.3 mm 0.14 in3.6 mm
04:11 PM 67.1°F19.5°C 65.8°F18.8°C 96% Calm Calm 2.0 mph3.2 kmh 29.92 in1013.2 mb 0.02 in0.5 mm 0.00 in0.0 mm 0.14 in3.6 mm
04:21 PM 67.5°F19.7°C 66.2°F19.0°C 96% Calm Calm -- 29.92 in1013.2 mb 0.01 in0.3 mm 0.00 in0.0 mm 0.14 in3.6 mm
04:31 PM 67.5°F19.7°C 66.2°F19.0°C 96% Calm Calm -- 29.92 in1013.2 mb 0.01 in0.3 mm 0.00 in0.0 mm 0.14 in3.6 mm
04:41 PM 67.6°F19.8°C 66.4°F19.1°C 96% Calm Calm -- 29.91 in1012.9 mb 0.01 in0.3 mm 0.00 in0.0 mm 0.14 in3.6 mm
04:51 PM 68.2°F20.1°C 67.3°F19.6°C 97% Calm Calm -- 29.92 in1013.2 mb 0.01 in0.3 mm 0.00 in0.0 mm 0.14 in3.6 mm
05:01 PM 68.2°F20.1°C 66.9°F19.4°C 96% Calm Calm 2.0 mph3.2 kmh 29.92 in1013.2 mb 0.00 in0.0 mm 0.00 in0.0 mm 0.14 in3.6 mm
05:11 PM 68.0°F20.0°C 66.7°F19.3°C 96% 0.9 mph SSW1.4 kmh SSW 2.0 mph3.2 kmh 29.91 in1012.9 mb 0.00 in0.0 mm 0.00 in0.0 mm 0.14 in3.6 mm
05:21 PM 68.2°F20.1°C 66.9°F19.4°C 96% 0.9 mph SSW1.4 kmh SSW 3.0 mph4.8 kmh 29.91 in1012.9 mb 0.00 in0.0 mm 0.00 in0.0 mm 0.14 in3.6 mm
05:31 PM 68.0°F20.0°C 66.7°F19.3°C 96% 0.9 mph S1.4 kmh S 2.0 mph3.2 kmh 29.91 in1012.9 mb 0.00 in0.0 mm 0.00 in0.0 mm 0.14 in3.6 mm
05:41 PM 67.8°F19.9°C 66.6°F19.2°C 96% Calm Calm 2.0 mph3.2 kmh 29.91 in1012.9 mb 0.00 in0.0 mm 0.00 in0.0 mm 0.14 in3.6 mm
05:51 PM 67.8°F19.9°C 66.6°F19.2°C 96% Calm Calm 2.0 mph3.2 kmh 29.92 in1013.2 mb 0.00 in0.0 mm 0.00 in0.0 mm 0.14 in3.6 mm
06:01 PM 67.6°F19.8°C 66.4°F19.1°C 96% Calm Calm 2.0 mph3.2 kmh 29.92 in1013.2 mb 0.00 in0.0 mm 0.00 in0.0 mm 0.14 in3.6 mm
06:11 PM 67.6°F19.8°C 66.4°F19.1°C 96% 0.9 mph S1.4 kmh S 2.0 mph3.2 kmh 29.92 in1013.2 mb 0.01 in0.3 mm 0.06 in1.5 mm 0.15 in3.8 mm
06:21 PM 67.6°F19.8°C 66.4°F19.1°C 96% Calm Calm 2.0 mph3.2 kmh 29.93 in1013.5 mb 0.02 in0.5 mm 0.06 in1.5 mm 0.16 in4.1 mm
06:31 PM 67.6°F19.8°C 66.4°F19.1°C 96% Calm Calm 2.0 mph3.2 kmh 29.93 in1013.5 mb 0.02 in0.5 mm 0.00 in0.0 mm 0.16 in4.1 mm
06:41 PM 67.5°F19.7°C 66.2°F19.0°C 96% 0.9 mph SW1.4 kmh SW 4.0 mph6.4 kmh 29.92 in1013.2 mb 0.02 in0.5 mm 0.00 in0.0 mm 0.16 in4.1 mm
06:52 PM 67.3°F19.6°C 66.0°F18.9°C 96% 0.9 mph S1.4 kmh S 3.0 mph4.8 kmh 29.93 in1013.5 mb 0.02 in0.5 mm 0.00 in0.0 mm 0.16 in4.1 mm
07:02 PM 67.1°F19.5°C 65.8°F18.8°C 96% 0.9 mph SSE1.4 kmh SSE 2.0 mph3.2 kmh 29.93 in1013.5 mb 0.02 in0.5 mm 0.00 in0.0 mm 0.16 in4.1 mm
07:12 PM 67.3°F19.6°C 66.4°F19.1°C 97% Calm Calm 3.0 mph4.8 kmh 29.93 in1013.5 mb 0.01 in0.3 mm 0.00 in0.0 mm 0.16 in4.1 mm
07:22 PM 67.3°F19.6°C 66.4°F19.1°C 97% Calm Calm 5.0 mph8.0 kmh 29.93 in1013.5 mb 0.00 in0.0 mm 0.00 in0.0 mm 0.16 in4.1 mm
07:32 PM 67.3°F19.6°C 66.4°F19.1°C 97% 0.9 mph S1.4 kmh S 5.0 mph8.0 kmh 29.92 in1013.2 mb 0.00 in0.0 mm 0.00 in0.0 mm 0.16 in4.1 mm
07:42 PM 67.3°F19.6°C 66.4°F19.1°C 97% Calm Calm 4.0 mph6.4 kmh 29.92 in1013.2 mb 0.00 in0.0 mm 0.00 in0.0 mm 0.16 in4.1 mm
07:52 PM 67.3°F19.6°C 66.4°F19.1°C 97% Calm Calm 0.9 mph1.4 kmh 29.92 in1013.2 mb 0.01 in0.3 mm 0.06 in1.5 mm 0.17 in4.3 mm
08:02 PM 67.3°F19.6°C 66.4°F19.1°C 97% Calm Calm 0.9 mph1.4 kmh 29.92 in1013.2 mb 0.01 in0.3 mm 0.00 in0.0 mm 0.17 in4.3 mm
08:12 PM 67.1°F19.5°C 66.2°F19.0°C 97% Calm Calm 2.0 mph3.2 kmh 29.92 in1013.2 mb 0.01 in0.3 mm 0.00 in0.0 mm 0.17 in4.3 mm
08:22 PM 67.1°F19.5°C 66.2°F19.0°C 97% Calm Calm 2.9 mph4.7 kmh 29.93 in1013.5 mb 0.01 in0.3 mm 0.00 in0.0 mm 0.17 in4.3 mm
08:32 PM 67.1°F19.5°C 66.2°F19.0°C 97% 0.9 mph SSE1.4 kmh SSE 2.0 mph3.2 kmh 29.92 in1013.2 mb 0.01 in0.3 mm 0.00 in0.0 mm 0.17 in4.3 mm
08:42 PM 66.9°F19.4°C 66.0°F18.9°C 97% 0.9 mph S1.4 kmh S 2.0 mph3.2 kmh 29.92 in1013.2 mb 0.01 in0.3 mm 0.00 in0.0 mm 0.17 in4.3 mm
08:52 PM 66.7°F19.3°C 65.8°F18.8°C 97% Calm Calm 3.0 mph4.8 kmh 29.93 in1013.5 mb 0.01 in0.3 mm 0.00 in0.0 mm 0.18 in4.6 mm
09:02 PM 66.7°F19.3°C 65.8°F18.8°C 97% 0.9 mph SE1.4 kmh SE 2.0 mph3.2 kmh 29.93 in1013.5 mb 0.10 in2.5 mm 0.11 in2.8 mm 0.28 in7.1 mm
09:12 PM 67.1°F19.5°C 66.2°F19.0°C 97% 0.9 mph S1.4 kmh S 3.0 mph4.8 kmh 29.93 in1013.5 mb 0.15 in3.8 mm 0.30 in7.6 mm 0.33 in8.4 mm
09:22 PM 67.3°F19.6°C 66.4°F19.1°C 97% 0.9 mph S1.4 kmh S 2.0 mph3.2 kmh 29.93 in1013.5 mb 0.21 in5.3 mm 0.36 in9.1 mm 0.40 in10.2 mm
09:32 PM 67.5°F19.7°C 66.6°F19.2°C 97% 0.9 mph SE1.4 kmh SE 3.0 mph4.8 kmh 29.93 in1013.5 mb 0.29 in7.4 mm 0.48 in12.2 mm 0.46 in11.7 mm
09:42 PM 67.5°F19.7°C 66.6°F19.2°C 97% Calm Calm 2.0 mph3.2 kmh 29.93 in1013.5 mb 0.30 in7.6 mm 0.06 in1.5 mm 0.48 in12.2 mm
09:52 PM 67.3°F19.6°C 66.4°F19.1°C 97% Calm Calm 1.0 mph1.6 kmh 29.93 in1013.5 mb 0.32 in8.1 mm 0.12 in3.0 mm 0.50 in12.7 mm
10:02 PM 67.3°F19.6°C 66.4°F19.1°C 97% Calm Calm 1.0 mph1.6 kmh 29.93 in1013.5 mb 0.25 in6.4 mm 0.00 in0.0 mm 0.52 in13.2 mm
10:12 PM 66.9°F19.4°C 66.0°F18.9°C 97% Calm Calm 0.9 mph1.4 kmh 29.93 in1013.5 mb 0.21 in5.3 mm 0.00 in0.0 mm 0.53 in13.5 mm
10:22 PM 66.7°F19.3°C 65.8°F18.8°C 97% Calm Calm 0.9 mph1.4 kmh 29.93 in1013.5 mb 0.17 in4.3 mm 0.00 in0.0 mm 0.55 in14.0 mm
10:32 PM 66.7°F19.3°C 65.8°F18.8°C 97% Calm Calm 0.9 mph1.4 kmh 29.92 in1013.2 mb 0.10 in2.5 mm 0.00 in0.0 mm 0.56 in14.2 mm
10:42 PM 66.7°F19.3°C 65.8°F18.8°C 97% Calm Calm 1.0 mph1.6 kmh 29.93 in1013.5 mb 0.09 in2.3 mm 0.00 in0.0 mm 0.56 in14.2 mm
10:52 PM 66.9°F19.4°C 66.0°F18.9°C 97% Calm Calm 0.9 mph1.4 kmh 29.93 in1013.5 mb 0.06 in1.5 mm 0.00 in0.0 mm 0.56 in14.2 mm
11:02 PM 67.1°F19.5°C 66.6°F19.2°C 98% Calm Calm 2.0 mph3.2 kmh 29.93 in1013.5 mb 0.04 in1.0 mm 0.00 in0.0 mm 0.56 in14.2 mm
11:12 PM 67.3°F19.6°C 66.7°F19.3°C 98% Calm Calm 3.0 mph4.8 kmh 29.93 in1013.5 mb 0.03 in0.8 mm 0.00 in0.0 mm 0.56 in14.2 mm
11:22 PM 67.5°F19.7°C 66.9°F19.4°C 98% Calm Calm 0.9 mph1.4 kmh 29.94 in1013.9 mb 0.02 in0.5 mm 0.00 in0.0 mm 0.57 in14.5 mm
11:32 PM 67.5°F19.7°C 66.9°F19.4°C 98% Calm Calm 0.9 mph1.4 kmh 29.94 in1013.9 mb 0.02 in0.5 mm 0.00 in0.0 mm 0.58 in14.7 mm
11:42 PM 67.5°F19.7°C 66.9°F19.4°C 98% Calm Calm 2.0 mph3.2 kmh 29.94 in1013.9 mb 0.03 in0.8 mm 0.06 in1.5 mm 0.59 in15.0 mm
11:52 PM 67.5°F19.7°C 66.9°F19.4°C 98% Calm Calm 0.9 mph1.4 kmh 29.94 in1013.9 mb 0.04 in1.0 mm 0.06 in1.5 mm 0.60 in15.2 mm